Forside
METAR-TAF:

METAR-TAF

Lufthavne :

Slesvig-Jagel, Tyskland

Breddekreds: 54-28N, længdekreds: 009-31E, højde: 22 m

Aktuelle vejr

Denne rapport blev lavet for 1 time og 55 minutter siden, kl. 09:20 UTC
Vind 7 kt fra sydøst
Temperatur 9°C
Fugtighed 81%
Tryk 1004 hPa

METAR: ETNS 020920Z AUTO 14007KT //// // ////// 09/06 Q1004 ///

Tid: 12:15 (11:15 UTC)

Vejrudsigter

Denne rapport blev lavet for 27 timer og 4 minutter siden, kl. 08:11 UTC
Foreløbig gælder fra 01 på 09 UTC til 01 på 18 UTC
Vind 10 kt fra sydsydøst
Sigt 10 km eller mere
Brudte skyer i en højde af 3000 ft
Midlertidig
fra 01 på 09 UTC til 01 på 11 UTC
Vind 10 kt fra syd med vindstød på up til 20 kt
Sigt: 7000 m
Brudte skyer i en højde af 2000 ft
let regn
Midlertidig
fra 01 på 11 UTC til 01 på 15 UTC
Vind 10 kt fra sydsydvest med vindstød på up til 20 kt
Sigt: 4000 m
Brudte skyer i en højde af 1200 ft
let regn, finregn,

TAF: ETNS 010811Z 0109/0118 16010KT 9999 NSW BKN030 TEMPO 0109/0111 18010G20KT 7000 -RA BKN020 TEMPO 0111/0115 20010G20KT 4000 -RADZ BKN012

Vejrobservationer og prognoser fra mere end 4000 lufthavne (METAR og TAF).

De gule og røde prikker repræsenterer de meteorologiske stationer.

Flyt musen over at se navnet på stationen.

Så klik over at se vejr observationer og prognoser.

At skifte det kort: Klik på de grønne knapper med et sort kors for at zoome ind; på den grønne knap med en bindestreg for at zoome ud; eller på de grønne pile for tilstødende kort.


METAR-TAF: